createdAt,value
2019-02-18T00:01:19.505Z,17.10
2019-02-18T00:03:50.116Z,16.77
2019-02-18T00:06:19.937Z,16.13
2019-02-18T00:08:50.831Z,18.77
2019-02-18T00:11:20.475Z,21.03
2019-02-18T00:13:50.211Z,19.48
2019-02-18T00:16:22.866Z,19.53
2019-02-18T00:18:53.475Z,19.63
2019-02-18T00:21:23.833Z,21.67
2019-02-18T00:23:55.155Z,20.88
2019-02-18T00:26:24.769Z,20.07
2019-02-18T00:28:56.134Z,20.37
2019-02-18T00:31:25.768Z,20.72
2019-02-18T00:33:58.574Z,20.77
2019-02-18T00:36:28.190Z,21.23
2019-02-18T00:38:59.570Z,21.47
2019-02-18T00:41:29.618Z,21.30
2019-02-18T00:44:02.278Z,21.25
2019-02-18T00:46:33.149Z,18.77
2019-02-18T00:49:05.727Z,19.98
2019-02-18T00:51:36.076Z,18.73
2019-02-18T00:54:05.159Z,20.00
2019-02-18T00:56:35.920Z,19.93
2019-02-18T00:59:07.469Z,21.37
2019-02-18T01:01:38.805Z,21.53
2019-02-18T01:04:08.638Z,21.93
2019-02-18T01:06:36.892Z,22.37
2019-02-18T01:09:06.635Z,21.40
2019-02-18T01:11:36.536Z,20.60
2019-02-18T01:14:08.545Z,18.93
2019-02-18T01:16:39.887Z,18.37
2019-02-18T01:19:10.198Z,18.43
2019-02-18T01:21:40.999Z,18.32
2019-02-18T01:24:10.760Z,18.63
2019-02-18T01:26:40.927Z,18.20
2019-02-18T01:29:12.850Z,17.40
2019-02-18T01:31:44.663Z,17.80
2019-02-18T01:34:14.365Z,19.27
2019-02-18T01:36:45.742Z,18.33
2019-02-18T01:39:15.365Z,18.13
2019-02-18T01:41:45.990Z,17.37
2019-02-18T01:44:15.849Z,18.50
2019-02-18T01:46:46.629Z,18.17
2019-02-18T01:49:17.066Z,18.67
2019-02-18T01:51:49.806Z,16.80
2019-02-18T01:54:19.659Z,18.57
2019-02-18T01:56:49.284Z,17.73
2019-02-18T01:59:20.654Z,17.40
2019-02-18T02:01:51.434Z,17.90
2019-02-18T02:04:22.798Z,16.87
2019-02-18T02:06:53.362Z,16.70
2019-02-18T02:09:23.612Z,18.17
2019-02-18T02:11:53.581Z,16.37
2019-02-18T02:14:23.635Z,16.60
2019-02-18T02:16:54.725Z,18.10
2019-02-18T02:19:24.394Z,17.00
2019-02-18T02:21:55.725Z,16.55
2019-02-18T02:24:27.090Z,16.47
2019-02-18T02:26:57.519Z,16.23
2019-02-18T02:29:26.594Z,15.87
2019-02-18T02:31:57.204Z,16.73
2019-02-18T02:34:27.491Z,16.17
2019-02-18T02:36:58.357Z,16.43
2019-02-18T02:39:29.650Z,15.70
2019-02-18T02:42:00.433Z,14.40
2019-02-18T02:44:30.850Z,16.07
2019-02-18T02:47:02.916Z,15.90
2019-02-18T02:49:32.544Z,15.83
2019-02-18T02:52:07.438Z,14.40
2019-02-18T02:54:37.457Z,16.00
2019-02-18T02:57:07.105Z,15.07
2019-02-18T02:59:38.352Z,15.07
2019-02-18T03:02:08.199Z,15.00
2019-02-18T03:04:39.542Z,14.77
2019-02-18T03:07:09.233Z,14.70
2019-02-18T03:09:39.248Z,14.30
2019-02-18T03:12:09.647Z,15.23
2019-02-18T03:14:40.472Z,16.33
2019-02-18T03:17:11.827Z,14.17
2019-02-18T03:19:41.442Z,15.77
2019-02-18T03:22:11.082Z,15.30
2019-02-18T03:24:44.338Z,15.00
2019-02-18T03:27:15.715Z,15.03
2019-02-18T03:30:06.934Z,14.80
2019-02-18T03:32:39.901Z,14.63
2019-02-18T03:35:13.871Z,13.97
2019-02-18T03:37:44.661Z,15.00
2019-02-18T03:40:15.446Z,14.27
2019-02-18T03:42:48.592Z,14.67
2019-02-18T03:45:19.151Z,14.63
2019-02-18T03:47:50.560Z,14.15
2019-02-18T03:50:21.143Z,13.53
2019-02-18T03:52:51.805Z,14.37
2019-02-18T03:55:21.638Z,15.23
2019-02-18T03:57:51.353Z,14.20
2019-02-18T04:00:21.154Z,13.40
2019-02-18T04:02:51.587Z,15.00
2019-02-18T04:05:21.420Z,15.00
2019-02-18T04:07:52.209Z,14.93
2019-02-18T04:10:23.616Z,15.47
2019-02-18T04:12:54.675Z,15.17
2019-02-18T04:15:26.006Z,14.83
2019-02-18T04:17:56.376Z,14.35
2019-02-18T04:20:26.934Z,14.67
2019-02-18T04:22:57.354Z,14.37
2019-02-18T04:25:28.781Z,13.67
2019-02-18T04:27:59.202Z,14.33
2019-02-18T04:30:28.268Z,12.90
2019-02-18T04:33:01.521Z,13.65
2019-02-18T04:35:34.372Z,13.83
2019-02-18T04:38:06.835Z,14.50
2019-02-18T04:40:38.175Z,14.17
2019-02-18T04:43:09.488Z,14.27
2019-02-18T04:45:39.871Z,14.10
2019-02-18T04:48:10.692Z,13.97
2019-02-18T04:50:40.373Z,14.60
2019-02-18T04:53:11.282Z,14.73
2019-02-18T04:55:41.126Z,15.65
2019-02-18T04:58:12.532Z,14.83
2019-02-18T05:00:42.334Z,14.13
2019-02-18T05:03:12.150Z,14.23
2019-02-18T05:05:43.473Z,14.20
2019-02-18T05:08:15.351Z,14.30
2019-02-18T05:10:45.015Z,14.23
2019-02-18T05:13:15.423Z,14.57
2019-02-18T05:15:46.263Z,13.80
2019-02-18T05:18:16.403Z,15.75
2019-02-18T05:20:46.216Z,13.80
2019-02-18T05:23:16.095Z,16.63
2019-02-18T05:25:45.925Z,16.80
2019-02-18T05:28:15.061Z,16.17
2019-02-18T05:30:45.638Z,16.17
2019-02-18T05:33:16.886Z,17.10
2019-02-18T05:35:48.307Z,16.33
2019-02-18T05:38:17.901Z,16.17
2019-02-18T05:40:50.771Z,15.70
2019-02-18T05:43:22.100Z,16.30
2019-02-18T05:45:53.468Z,15.83
2019-02-18T05:48:23.300Z,16.77
2019-02-18T05:50:53.904Z,15.72
2019-02-18T05:53:23.745Z,16.67
2019-02-18T05:55:54.752Z,15.60
2019-02-18T05:58:24.548Z,15.77
2019-02-18T06:00:54.985Z,16.63
2019-02-18T06:03:26.346Z,16.90
2019-02-18T06:05:57.718Z,15.90
2019-02-18T06:08:28.142Z,16.17
2019-02-18T06:10:58.610Z,16.73
2019-02-18T06:13:28.425Z,14.23
2019-02-18T06:15:58.319Z,15.03
2019-02-18T06:18:27.287Z,16.13
2019-02-18T06:20:57.908Z,15.65
2019-02-18T06:23:30.025Z,16.10
2019-02-18T06:26:05.824Z,16.00
2019-02-18T06:28:37.140Z,15.90
2019-02-18T06:31:07.177Z,15.63
2019-02-18T06:33:37.000Z,16.43
2019-02-18T06:36:05.450Z,17.07
2019-02-18T06:38:36.215Z,16.03
2019-02-18T06:41:07.951Z,15.20
2019-02-18T06:43:39.207Z,14.83
2019-02-18T06:46:13.663Z,15.17
2019-02-18T06:48:44.896Z,15.23
2019-02-18T06:51:14.477Z,14.40
2019-02-18T06:53:44.129Z,13.73
2019-02-18T06:56:13.737Z,13.80
2019-02-18T06:58:46.763Z,13.67
2019-02-18T07:01:24.274Z,12.83
2019-02-18T07:03:55.491Z,13.05
2019-02-18T07:06:35.487Z,12.93
2019-02-18T07:09:22.979Z,13.63
2019-02-18T07:11:56.354Z,13.78
2019-02-18T07:14:26.372Z,13.20
2019-02-18T07:16:59.786Z,13.93
2019-02-18T07:19:32.885Z,13.77
2019-02-18T07:22:06.803Z,13.77
2019-02-18T07:24:37.143Z,14.60
2019-02-18T07:27:07.729Z,14.27
2019-02-18T07:29:39.060Z,14.03
2019-02-18T07:32:09.426Z,14.10
2019-02-18T07:34:39.038Z,14.23
2019-02-18T07:37:08.711Z,13.50
2019-02-18T07:39:41.936Z,13.37
2019-02-18T07:42:13.263Z,13.10
2019-02-18T07:44:45.403Z,13.40
2019-02-18T07:47:16.753Z,13.60
2019-02-18T07:49:47.137Z,14.13
2019-02-18T07:52:16.805Z,12.63
2019-02-18T07:54:46.905Z,14.33
2019-02-18T07:57:17.394Z,14.27
2019-02-18T07:59:47.952Z,13.60
2019-02-18T08:02:21.203Z,13.10
2019-02-18T08:04:51.765Z,13.13
2019-02-18T08:07:21.808Z,12.60
2019-02-18T08:09:53.204Z,13.32
2019-02-18T08:12:23.696Z,13.07
2019-02-18T08:14:56.549Z,12.90
2019-02-18T08:17:27.984Z,12.93
2019-02-18T08:19:58.708Z,12.63
2019-02-18T08:22:30.063Z,13.07
2019-02-18T08:25:00.052Z,12.27
2019-02-18T08:27:30.440Z,13.03
2019-02-18T08:30:03.154Z,12.55
2019-02-18T08:32:34.613Z,13.37
2019-02-18T08:35:05.455Z,12.63
2019-02-18T08:37:35.875Z,12.90
2019-02-18T08:40:06.192Z,13.17
2019-02-18T08:42:35.744Z,12.17
2019-02-18T08:45:06.771Z,13.60
2019-02-18T08:47:40.117Z,12.97
2019-02-18T08:50:12.499Z,12.77
2019-02-18T08:52:42.264Z,12.47
2019-02-18T08:55:15.838Z,13.33
2019-02-18T08:57:44.894Z,12.97
2019-02-18T09:02:52.625Z,13.43
2019-02-18T09:05:24.052Z,12.53
2019-02-18T09:07:54.132Z,12.55
2019-02-18T09:10:33.204Z,12.50
2019-02-18T09:12:58.009Z,12.63
2019-02-18T09:15:30.272Z,12.63
2019-02-18T09:18:01.043Z,12.88
2019-02-18T09:20:31.461Z,12.73
2019-02-18T09:23:05.903Z,13.47
2019-02-18T09:25:38.265Z,13.07
2019-02-18T09:28:08.136Z,13.30
2019-02-18T09:30:39.429Z,13.47
2019-02-18T09:33:09.218Z,13.65
2019-02-18T09:35:40.018Z,13.20
2019-02-18T09:38:23.768Z,13.27
2019-02-18T09:40:48.356Z,13.90
2019-02-18T09:43:16.184Z,13.90
2019-02-18T09:45:47.636Z,13.93
2019-02-18T09:48:18.961Z,13.67
2019-02-18T09:50:51.396Z,14.20
2019-02-18T09:53:20.656Z,13.90
2019-02-18T09:55:55.377Z,14.50
2019-02-18T09:58:28.288Z,14.37
2019-02-18T10:00:58.152Z,13.77
2019-02-18T10:03:32.100Z,14.20
2019-02-18T10:06:02.160Z,14.15
2019-02-18T10:08:33.012Z,13.70
2019-02-18T10:11:04.688Z,14.30
2019-02-18T10:13:34.741Z,14.80
2019-02-18T10:16:06.730Z,14.20
2019-02-18T10:18:36.800Z,15.30
2019-02-18T10:21:07.201Z,14.07
2019-02-18T10:23:38.040Z,14.23
2019-02-18T10:26:08.816Z,14.27
2019-02-18T10:28:38.633Z,13.10
2019-02-18T10:31:10.021Z,13.47
2019-02-18T10:33:39.121Z,13.60
2019-02-18T10:36:09.920Z,12.87
2019-02-18T10:38:40.319Z,12.23
2019-02-18T10:41:11.795Z,12.03
2019-02-18T10:43:43.118Z,13.20
2019-02-18T10:46:13.911Z,12.73
2019-02-18T10:48:42.870Z,12.83
2019-02-18T10:51:13.458Z,12.10
2019-02-18T10:53:44.883Z,12.57
2019-02-18T10:56:17.493Z,12.00
2019-02-18T10:58:49.968Z,11.93
2019-02-18T11:01:20.768Z,12.33
2019-02-18T11:03:52.132Z,11.93
2019-02-18T11:06:23.000Z,12.03
2019-02-18T11:08:52.657Z,11.53
2019-02-18T11:11:25.123Z,11.83
2019-02-18T11:13:54.864Z,11.85
2019-02-18T11:16:26.295Z,11.20
2019-02-18T11:18:59.838Z,10.93
2019-02-18T11:21:32.302Z,10.83
2019-02-18T11:24:01.352Z,11.03
2019-02-18T11:26:30.466Z,10.87
2019-02-18T11:29:01.807Z,10.23
2019-02-18T11:31:32.804Z,10.73
2019-02-18T11:34:03.639Z,10.27
2019-02-18T11:36:34.019Z,10.30
2019-02-18T11:39:05.125Z,9.40
2019-02-18T11:41:36.517Z,7.93
2019-02-18T11:44:09.741Z,9.23
2019-02-18T11:46:42.995Z,9.67
2019-02-18T11:49:13.919Z,9.27
2019-02-18T11:51:44.494Z,8.73
2019-02-18T11:54:17.029Z,8.77
2019-02-18T11:56:46.381Z,9.27
2019-02-18T11:59:24.203Z,8.93
2019-02-18T12:01:50.867Z,9.30
2019-02-18T12:04:22.184Z,8.70
2019-02-18T12:09:45.486Z,9.33
2019-02-18T12:12:16.782Z,8.70
2019-02-18T12:14:47.172Z,8.80
2019-02-18T12:17:20.843Z,8.63
2019-02-18T12:19:50.334Z,8.00
2019-02-18T12:22:20.193Z,8.30
2019-02-18T12:24:49.347Z,8.17
2019-02-18T12:27:19.823Z,7.67
2019-02-18T12:29:49.475Z,7.25
2019-02-18T12:32:19.998Z,8.20
2019-02-18T12:34:50.357Z,8.17
2019-02-18T12:37:19.429Z,7.97
2019-02-18T12:39:49.430Z,8.10
2019-02-18T12:42:20.511Z,8.67
2019-02-18T12:44:51.107Z,8.33
2019-02-18T12:47:21.586Z,8.40
2019-02-18T12:49:52.178Z,8.40
2019-02-18T12:52:22.465Z,9.23
2019-02-18T12:54:52.948Z,9.30
2019-02-18T12:57:23.630Z,9.47
2019-02-18T12:59:56.370Z,9.35
2019-02-18T13:02:27.782Z,9.50
2019-02-18T13:04:57.774Z,8.97
2019-02-18T13:07:28.527Z,9.80
2019-02-18T13:09:59.510Z,10.10
2019-02-18T13:12:29.888Z,11.48
2019-02-18T13:15:00.437Z,10.80
2019-02-18T13:17:30.521Z,10.87
2019-02-18T13:20:00.406Z,11.07
2019-02-18T13:22:31.780Z,11.37
2019-02-18T13:25:07.598Z,10.80
2019-02-18T13:27:39.770Z,10.80
2019-02-18T13:30:25.813Z,10.67
2019-02-18T13:32:56.624Z,11.30
2019-02-18T13:35:27.408Z,10.73
2019-02-18T13:37:58.638Z,9.68
2019-02-18T13:40:33.742Z,10.37
2019-02-18T13:43:04.495Z,10.73
2019-02-18T13:45:34.144Z,10.50
2019-02-18T13:48:05.556Z,10.27
2019-02-18T13:50:36.803Z,10.73
2019-02-18T13:53:06.144Z,10.43
2019-02-18T13:55:39.002Z,10.00
2019-02-18T13:58:10.925Z,8.97
2019-02-18T14:00:42.286Z,9.90
2019-02-18T14:03:15.540Z,9.73
2019-02-18T14:05:47.844Z,9.63
2019-02-18T14:08:18.624Z,10.20
2019-02-18T14:10:48.288Z,10.00
2019-02-18T14:13:17.925Z,10.07
2019-02-18T14:15:48.356Z,10.30
2019-02-18T14:18:19.134Z,8.07
2019-02-18T14:20:49.439Z,8.57
2019-02-18T14:23:18.447Z,8.60
2019-02-18T14:25:49.328Z,8.98
2019-02-18T14:28:19.715Z,9.80
2019-02-18T14:30:50.530Z,9.47
2019-02-18T14:33:21.011Z,9.10
2019-02-18T14:35:50.659Z,8.60
2019-02-18T14:38:21.333Z,9.60
2019-02-18T14:40:51.230Z,9.23
2019-02-18T14:43:21.411Z,8.63
2019-02-18T14:45:51.460Z,9.33
2019-02-18T14:48:23.566Z,9.90
2019-02-18T14:50:56.683Z,8.78
2019-02-18T14:53:24.101Z,9.70
2019-02-18T14:55:55.671Z,9.40
2019-02-18T14:58:25.515Z,9.13
2019-02-18T15:00:55.874Z,9.40
2019-02-18T15:03:26.305Z,9.73
2019-02-18T15:05:57.676Z,9.55
2019-02-18T15:08:30.036Z,9.80
2019-02-18T15:11:00.016Z,9.87
2019-02-18T15:13:31.153Z,9.40
2019-02-18T15:16:02.382Z,9.57
2019-02-18T15:18:34.283Z,9.40
2019-02-18T15:21:04.672Z,8.90
2019-02-18T15:23:36.118Z,9.87
2019-02-18T15:26:09.422Z,9.93
2019-02-18T15:28:39.265Z,9.33
2019-02-18T15:31:10.675Z,10.13
2019-02-18T15:33:40.494Z,9.97
2019-02-18T15:36:13.650Z,10.20
2019-02-18T15:38:45.326Z,9.87
2019-02-18T15:41:16.559Z,10.30
2019-02-18T15:43:47.426Z,9.97
2019-02-18T15:46:18.192Z,9.90
2019-02-18T15:48:49.579Z,10.47
2019-02-18T15:51:21.071Z,10.57
2019-02-18T15:53:54.318Z,10.82
2019-02-18T15:56:24.878Z,11.30
2019-02-18T15:58:54.704Z,10.10
2019-02-18T16:01:23.740Z,10.70
2019-02-18T16:03:52.642Z,10.85
2019-02-18T16:06:24.529Z,11.23
2019-02-18T16:08:54.175Z,11.77
2019-02-18T16:11:27.509Z,10.67
2019-02-18T16:13:58.191Z,10.35
2019-02-18T16:16:29.075Z,10.80
2019-02-18T16:19:00.434Z,11.77
2019-02-18T16:21:30.055Z,11.03
2019-02-18T16:23:59.141Z,11.30
2019-02-18T16:26:30.760Z,12.13
2019-02-18T16:29:02.127Z,11.17
2019-02-18T16:31:32.244Z,11.20
2019-02-18T16:36:36.791Z,11.43
2019-02-18T16:39:09.506Z,11.37
2019-02-18T16:41:39.188Z,11.20
2019-02-18T16:44:10.309Z,10.30
2019-02-18T16:46:39.936Z,10.63
2019-02-18T16:49:09.893Z,11.57
2019-02-18T16:51:39.567Z,10.60
2019-02-18T16:54:14.289Z,11.73
2019-02-18T16:56:45.422Z,14.43
2019-02-18T16:59:16.083Z,12.97
2019-02-18T17:01:47.476Z,11.80
2019-02-18T17:04:19.155Z,12.73
2019-02-18T17:06:50.499Z,12.40
2019-02-18T17:09:22.126Z,12.27
2019-02-18T17:11:52.110Z,13.93
2019-02-18T17:14:23.469Z,13.07
2019-02-18T17:16:53.086Z,11.40
2019-02-18T17:19:24.482Z,11.13
2019-02-18T17:21:54.116Z,11.90
2019-02-18T17:24:24.974Z,11.03
2019-02-18T17:26:57.104Z,11.53
2019-02-18T17:29:26.978Z,10.80
2019-02-18T17:31:58.420Z,11.15
2019-02-18T17:34:28.841Z,13.00
2019-02-18T17:37:01.822Z,12.00
2019-02-18T17:39:34.673Z,13.03
2019-02-18T17:42:03.777Z,12.60
2019-02-18T17:44:34.078Z,14.03
2019-02-18T17:47:03.167Z,11.50
2019-02-18T17:49:32.781Z,11.90
2019-02-18T17:52:01.365Z,12.00
2019-02-18T17:54:31.013Z,12.83
2019-02-18T17:56:59.281Z,13.30
2019-02-18T17:59:28.591Z,13.43
2019-02-18T18:01:59.342Z,12.80
2019-02-18T18:04:29.935Z,12.63
2019-02-18T18:07:00.614Z,12.73
2019-02-18T18:09:32.077Z,11.87
2019-02-18T18:12:04.781Z,11.77
2019-02-18T18:14:35.471Z,12.57
2019-02-18T18:17:06.787Z,12.27
2019-02-18T18:19:36.545Z,11.20
2019-02-18T18:22:07.759Z,13.23
2019-02-18T18:24:40.750Z,13.70
2019-02-18T18:27:15.439Z,13.63
2019-02-18T18:29:46.290Z,13.57
2019-02-18T18:32:16.750Z,12.83
2019-02-18T18:34:50.029Z,13.00
2019-02-18T18:37:22.926Z,13.43
2019-02-18T18:39:54.863Z,13.17
2019-02-18T18:42:26.489Z,13.13
2019-02-18T18:44:57.134Z,12.60
2019-02-18T18:47:26.751Z,12.80
2019-02-18T18:49:58.094Z,13.43
2019-02-18T18:52:28.659Z,13.53
2019-02-18T18:55:03.054Z,11.77
2019-02-18T18:57:33.391Z,13.03
2019-02-18T19:00:05.000Z,13.07
2019-02-18T19:02:35.242Z,12.10
2019-02-18T19:05:07.458Z,12.00
2019-02-18T19:07:39.086Z,12.33
2019-02-18T19:10:09.988Z,13.83
2019-02-18T19:12:39.093Z,13.10
2019-02-18T19:15:11.357Z,12.80
2019-02-18T19:17:44.045Z,19.90
2019-02-18T19:20:15.136Z,17.03
2019-02-18T19:22:43.722Z,14.43
2019-02-18T19:25:13.101Z,13.32
2019-02-18T19:27:42.880Z,13.17
2019-02-18T19:30:29.044Z,14.00
2019-02-18T19:32:59.311Z,13.77
2019-02-18T19:35:30.035Z,13.23
2019-02-18T19:38:01.935Z,14.45
2019-02-18T19:40:33.185Z,13.63
2019-02-18T19:43:05.792Z,14.33
2019-02-18T19:45:37.023Z,13.87
2019-02-18T19:48:10.123Z,14.03
2019-02-18T19:50:40.686Z,13.83
2019-02-18T19:53:11.950Z,14.03
2019-02-18T19:55:42.702Z,15.23
2019-02-18T19:58:15.950Z,14.53
2019-02-18T20:00:46.334Z,14.83
2019-02-18T20:03:19.887Z,13.63
2019-02-18T20:05:49.619Z,13.20
2019-02-18T20:08:20.686Z,13.10
2019-02-18T20:10:50.670Z,13.03
2019-02-18T20:13:19.774Z,13.27
2019-02-18T20:15:50.057Z,13.05
2019-02-18T20:18:19.093Z,13.87
2019-02-18T20:20:49.549Z,12.80
2019-02-18T20:23:19.043Z,16.43
2019-02-18T20:25:49.442Z,14.83
2019-02-18T20:28:23.147Z,15.20
2019-02-18T20:30:52.942Z,15.43
2019-02-18T20:33:22.975Z,15.43
2019-02-18T20:35:53.401Z,15.55
2019-02-18T20:38:25.010Z,16.50
2019-02-18T20:40:55.635Z,15.63
2019-02-18T20:43:25.959Z,14.37
2019-02-18T20:45:55.588Z,15.40
2019-02-18T20:48:25.728Z,15.57
2019-02-18T20:50:58.958Z,15.37
2019-02-18T20:53:31.239Z,15.83
2019-02-18T20:56:02.063Z,16.10
2019-02-18T20:58:36.730Z,15.60
2019-02-18T21:01:08.052Z,15.80
2019-02-18T21:03:38.873Z,15.67
2019-02-18T21:06:14.354Z,15.97
2019-02-18T21:08:47.181Z,18.70
2019-02-18T21:11:18.509Z,16.30
2019-02-18T21:13:49.775Z,15.48
2019-02-18T21:16:21.058Z,15.13
2019-02-18T21:18:53.327Z,14.50
2019-02-18T21:21:23.722Z,14.87
2019-02-18T21:23:54.118Z,15.20
2019-02-18T21:26:24.686Z,15.37
2019-02-18T21:28:54.722Z,14.43
2019-02-18T21:31:27.858Z,13.90
2019-02-18T21:33:58.163Z,13.93
2019-02-18T21:36:29.391Z,14.80
2019-02-18T21:39:00.677Z,13.73
2019-02-18T21:41:32.035Z,12.97
2019-02-18T21:46:37.775Z,14.77
2019-02-18T21:49:08.435Z,14.05
2019-02-18T21:51:37.474Z,14.07
2019-02-18T21:54:06.545Z,14.83
2019-02-18T21:56:35.614Z,14.73
2019-02-18T21:59:08.856Z,14.53
2019-02-18T22:01:38.500Z,13.65
2019-02-18T22:04:09.455Z,14.37
2019-02-18T22:06:38.572Z,15.20
2019-02-18T22:09:09.832Z,13.97
2019-02-18T22:11:42.318Z,13.62
2019-02-18T22:14:12.136Z,14.47
2019-02-18T22:16:44.481Z,13.67
2019-02-18T22:19:14.931Z,13.97
2019-02-18T22:21:45.782Z,14.93
2019-02-18T22:24:15.440Z,15.38
2019-02-18T22:26:46.058Z,14.70
2019-02-18T22:29:17.395Z,15.37
2019-02-18T22:31:50.606Z,14.13
2019-02-18T22:34:20.094Z,15.40
2019-02-18T22:36:50.952Z,14.37
2019-02-18T22:39:21.711Z,14.63
2019-02-18T22:41:52.129Z,14.45
2019-02-18T22:44:23.317Z,14.27
2019-02-18T22:46:54.286Z,15.03
2019-02-18T22:49:25.682Z,15.30
2019-02-18T22:51:56.478Z,15.43
2019-02-18T22:54:26.943Z,15.30
2019-02-18T22:56:58.144Z,14.80
2019-02-18T22:59:28.321Z,15.70
2019-02-18T23:02:00.049Z,15.03
2019-02-18T23:04:30.677Z,15.07
2019-02-18T23:07:00.522Z,15.10
2019-02-18T23:09:30.915Z,14.60
2019-02-18T23:12:01.709Z,14.83
2019-02-18T23:14:32.673Z,15.00
2019-02-18T23:17:05.862Z,14.70
2019-02-18T23:19:35.498Z,15.05
2019-02-18T23:22:08.335Z,14.73
2019-02-18T23:24:37.376Z,14.13
2019-02-18T23:27:08.559Z,14.90
2019-02-18T23:29:38.367Z,14.47
2019-02-18T23:32:09.710Z,13.57
2019-02-18T23:34:40.155Z,13.10
2019-02-18T23:37:10.467Z,13.57
2019-02-18T23:39:41.822Z,13.87
2019-02-18T23:42:11.460Z,13.60
2019-02-18T23:44:42.675Z,14.23
2019-02-18T23:47:15.443Z,13.60
2019-02-18T23:49:45.839Z,13.53
2019-02-18T23:52:16.622Z,14.40
2019-02-18T23:54:49.593Z,13.43
2019-02-18T23:57:19.466Z,12.93
2019-02-18T23:59:49.867Z,13.55
